Time;durP1;ratioP1;P1;durP2;ratioP2;P2;SDS_P1;SDS_P2;PMS_P1;PMS_P2;Temp;Humidity;BMP_temperature;BMP_pressure;BME280_temperature;BME280_humidity;BME280_pressure;Samples;Min_cycle;Max_cycle;Signal;HPM_P1;HPM_P2
2023/01/21 00:00:40;;;;;;;9.40;7.07;;;;;2.20;98691.00;;;;4935240;29;20094;-61
2023/01/21 00:03:08;;;;;;;9.18;7.03;;;;;2.20;98697.00;;;;4935393;29;20052;-61
2023/01/21 00:05:34;;;;;;;9.35;7.03;;;;;2.20;98699.00;;;;4917513;29;20048;-60
2023/01/21 00:08:01;;;;;;;8.45;6.75;;;;;2.20;98698.00;;;;4917914;29;20500;-62
2023/01/21 00:10:28;;;;;;;8.35;6.65;;;;;2.20;98699.00;;;;4917339;29;20048;-61
2023/01/21 00:12:54;;;;;;;8.20;5.97;;;;;2.20;98711.00;;;;4901914;29;20048;-61
2023/01/21 00:15:21;;;;;;;8.23;6.28;;;;;2.20;98709.00;;;;4934114;29;20386;-63
2023/01/21 00:17:47;;;;;;;9.30;7.15;;;;;2.20;98713.00;;;;4934533;29;20044;-61
2023/01/21 00:20:14;;;;;;;7.60;6.85;;;;;2.10;98707.00;;;;4934392;29;20054;-62
2023/01/21 00:22:41;;;;;;;9.13;7.45;;;;;2.10;98715.00;;;;4934055;29;20538;-62
2023/01/21 00:25:08;;;;;;;9.13;6.50;;;;;2.00;98712.00;;;;4934341;29;20555;-61
2023/01/21 00:27:34;;;;;;;7.93;6.00;;;;;2.00;98717.00;;;;4920716;29;20103;-61
2023/01/21 00:30:01;;;;;;;6.88;5.63;;;;;2.00;98719.00;;;;4937774;29;20110;-60
2023/01/21 00:32:27;;;;;;;7.65;5.70;;;;;2.00;98723.00;;;;4937870;29;20390;-62
2023/01/21 00:34:54;;;;;;;8.52;6.03;;;;;1.90;98717.00;;;;4937121;29;20400;-61
2023/01/21 00:37:21;;;;;;;7.93;6.20;;;;;1.90;98727.00;;;;4937964;29;20051;-60
2023/01/21 00:39:47;;;;;;;9.30;6.28;;;;;1.90;98723.00;;;;4920854;29;20371;-61
2023/01/21 00:42:13;;;;;;;8.35;5.95;;;;;1.90;98728.00;;;;4937721;29;20185;-62
2023/01/21 00:44:40;;;;;;;7.38;5.40;;;;;2.00;98740.00;;;;4919839;29;20048;-61
2023/01/21 00:47:06;;;;;;;5.57;4.75;;;;;1.90;98741.00;;;;4920675;29;20445;-63
2023/01/21 00:49:33;;;;;;;7.28;5.47;;;;;1.90;98732.00;;;;4920462;29;20087;-62
2023/01/21 00:52:00;;;;;;;7.55;5.55;;;;;1.90;98738.00;;;;4937433;29;20043;-62
2023/01/21 00:54:26;;;;;;;6.28;5.50;;;;;2.00;98750.00;;;;4936744;29;20051;-63
2023/01/21 00:56:53;;;;;;;7.28;5.65;;;;;2.10;98746.00;;;;4937487;29;20047;-61
2023/01/21 00:59:19;;;;;;;6.07;5.03;;;;;2.10;98746.00;;;;4937552;29;20047;-61
2023/01/21 01:01:46;;;;;;;6.70;5.78;;;;;2.10;98748.00;;;;4940320;29;20059;-60
2023/01/21 01:04:13;;;;;;;6.00;5.25;;;;;2.10;98747.00;;;;4944404;29;20044;-62
2023/01/21 01:06:39;;;;;;;6.15;5.15;;;;;2.00;98750.00;;;;4945887;29;20047;-61
2023/01/21 01:09:06;;;;;;;5.68;5.07;;;;;2.10;98751.00;;;;4937160;29;20448;-59
2023/01/21 01:11:33;;;;;;;5.65;5.03;;;;;2.10;98757.00;;;;4919786;29;20052;-61
2023/01/21 01:13:59;;;;;;;5.50;4.72;;;;;2.10;98758.00;;;;4919929;29;20054;-61
2023/01/21 01:16:26;;;;;;;5.55;4.95;;;;;2.10;98761.00;;;;4936702;29;20055;-62
2023/01/21 01:18:54;;;;;;;7.47;5.15;;;;;2.00;98766.00;;;;4937177;29;20048;-61
2023/01/21 01:21:21;;;;;;;5.55;5.05;;;;;2.00;98769.00;;;;4919777;29;20497;-61
2023/01/21 01:23:51;;;;;;;5.00;4.50;;;;;2.00;98772.00;;;;4937201;29;20492;-61
2023/01/21 01:26:19;;;;;;;6.45;5.03;;;;;2.00;98776.00;;;;4936372;29;20508;-61
2023/01/21 01:28:45;;;;;;;5.00;4.50;;;;;1.90;98776.00;;;;4936769;29;20464;-63
2023/01/21 01:31:15;;;;;;;4.70;4.30;;;;;1.90;98792.00;;;;4936687;29;20501;-64
2023/01/21 01:33:42;;;;;;;4.40;4.00;;;;;1.90;98782.00;;;;4936535;29;20055;-65
2023/01/21 01:36:19;;;;;;;5.35;4.50;;;;;1.90;98787.00;;;;4936860;29;20081;-62
2023/01/21 01:38:46;;;;;;;4.85;4.35;;;;;1.90;98797.00;;;;4921341;29;20526;-62
2023/01/21 01:41:26;;;;;;;4.55;4.13;;;;;1.90;98804.00;;;;4938248;29;20346;-61
2023/01/21 01:44:00;;;;;;;5.32;4.57;;;;;1.80;98798.00;;;;4938185;29;20075;-63
2023/01/21 01:46:29;;;;;;;5.18;4.45;;;;;1.70;98808.00;;;;4937884;29;20508;-62
2023/01/21 01:49:02;;;;;;;4.40;3.83;;;;;1.70;98816.00;;;;4938465;29;20040;-61
2023/01/21 01:51:35;;;;;;;4.80;4.40;;;;;1.70;98814.00;;;;4938008;29;20561;-63
2023/01/21 01:54:02;;;;;;;5.72;4.75;;;;;1.70;98810.00;;;;4937056;29;20044;-62
2023/01/21 01:56:29;;;;;;;4.35;3.95;;;;;1.60;98813.00;;;;4918920;29;20051;-62
2023/01/21 01:58:56;;;;;;;4.60;3.97;;;;;1.60;98817.00;;;;4936415;29;20048;-64
2023/01/21 02:01:22;;;;;;;4.35;3.95;;;;;1.60;98823.00;;;;4936157;29;20051;-62
2023/01/21 02:03:58;;;;;;;4.95;4.30;;;;;1.60;98837.00;;;;4919628;29;20048;-62
2023/01/21 02:06:25;;;;;;;4.85;4.22;;;;;1.50;98832.00;;;;4919137;29;20048;-63
2023/01/21 02:08:53;;;;;;;4.78;4.30;;;;;1.50;98837.00;;;;4936803;29;20047;-62
2023/01/21 02:11:19;;;;;;;4.80;4.30;;;;;1.60;98848.00;;;;4918680;29;20058;-62
2023/01/21 02:13:52;;;;;;;4.22;3.83;;;;;1.50;98837.00;;;;4936180;29;20520;-61
2023/01/21 02:16:45;;;;;;;4.82;4.25;;;;;1.60;98847.00;;;;4935319;29;20048;-62
2023/01/21 02:19:26;;;;;;;4.20;3.80;;;;;1.50;98855.00;;;;4935894;29;20054;-61
2023/01/21 02:22:18;;;;;;;4.65;4.25;;;;;1.50;98860.00;;;;4935683;29;20048;-62
2023/01/21 02:24:52;;;;;;;4.40;3.75;;;;;1.40;98862.00;;;;4918557;29;20083;-61
2023/01/21 02:27:45;;;;;;;4.10;3.70;;;;;1.30;98864.00;;;;4936210;29;20044;-61
2023/01/21 02:30:27;;;;;;;4.82;4.00;;;;;1.30;98872.00;;;;4936128;29;20561;-61
2023/01/21 02:33:21;;;;;;;4.80;3.80;;;;;1.20;98870.00;;;;4935587;29;20040;-63
2023/01/21 02:36:26;;;;;;;4.38;3.92;;;;;1.20;98876.00;;;;4935113;29;20067;-63
2023/01/21 02:39:05;;;;;;;5.30;4.18;;;;;1.20;98885.00;;;;4918623;29;20051;-62
2023/01/21 02:41:34;;;;;;;6.25;3.65;;;;;1.20;98888.00;;;;4935581;29;20051;-62
2023/01/21 02:44:29;;;;;;;4.13;3.72;;;;;1.10;98896.00;;;;4935453;29;20048;-62
2023/01/21 02:47:08;;;;;;;4.32;3.65;;;;;1.10;98895.00;;;;4918898;29;20103;-62
2023/01/21 02:49:46;;;;;;;5.57;4.15;;;;;1.10;98898.00;;;;4935578;29;20063;-62
2023/01/21 02:52:17;;;;;;;5.80;4.47;;;;;1.00;98899.00;;;;4918491;29;20043;-63
2023/01/21 02:54:52;;;;;;;4.40;3.90;;;;;1.10;98906.00;;;;4934720;29;20055;-63
2023/01/21 02:57:25;;;;;;;5.22;4.55;;;;;1.10;98906.00;;;;4935299;29;20043;-62
2023/01/21 02:59:54;;;;;;;5.45;4.43;;;;;1.10;98917.00;;;;4918437;29;20059;-62
2023/01/21 03:02:37;;;;;;;5.28;4.53;;;;;1.00;98919.00;;;;4934844;29;20055;-62
2023/01/21 03:05:19;;;;;;;5.55;4.78;;;;;1.10;98927.00;;;;4917614;29;20052;-63
2023/01/21 03:08:05;;;;;;;5.00;4.40;;;;;1.10;98926.00;;;;4935457;29;20054;-62
2023/01/21 03:10:39;;;;;;;6.05;4.65;;;;;1.10;98921.00;;;;4918005;29;20060;-63
2023/01/21 03:13:13;;;;;;;4.63;4.13;;;;;1.00;98926.00;;;;4918054;29;20055;-64
2023/01/21 03:18:37;;;;;;;7.78;6.10;;;;;1.00;98933.00;;;;4934991;29;20030;-61
2023/01/21 03:21:08;;;;;;;6.10;5.13;;;;;1.00;98942.00;;;;4935115;29;20114;-61
2023/01/21 03:23:42;;;;;;;8.50;6.18;;;;;1.00;98942.00;;;;4934916;29;20058;-60
2023/01/21 03:26:11;;;;;;;6.85;5.72;;;;;1.00;98952.00;;;;4934394;29;20043;-61
2023/01/21 03:28:42;;;;;;;8.43;5.93;;;;;1.00;98952.00;;;;4934680;29;20145;-62
2023/01/21 03:31:17;;;;;;;6.70;6.00;;;;;1.00;98942.00;;;;4917773;29;20059;-61
2023/01/21 03:33:45;;;;;;;7.13;6.35;;;;;1.00;98949.00;;;;4934684;29;20048;-62
2023/01/21 03:36:25;;;;;;;9.48;7.18;;;;;1.00;98964.00;;;;4934021;29;20044;-61
2023/01/21 03:38:55;;;;;;;9.05;6.68;;;;;1.00;98962.00;;;;4934678;29;20051;-61
2023/01/21 03:41:27;;;;;;;6.95;5.78;;;;;1.00;98969.00;;;;4934528;29;20048;-62
2023/01/21 03:43:53;;;;;;;8.88;6.15;;;;;1.00;98971.00;;;;4934439;29;20051;-62
2023/01/21 03:46:37;;;;;;;7.75;6.20;;;;;0.90;98966.00;;;;4934569;29;20059;-61
2023/01/21 03:49:32;;;;;;;7.78;5.97;;;;;0.90;98972.00;;;;4917758;29;20052;-63
2023/01/21 03:52:00;;;;;;;8.52;6.22;;;;;0.90;98975.00;;;;4934969;29;20451;-63
2023/01/21 03:54:27;;;;;;;8.98;6.60;;;;;0.90;98978.00;;;;4934264;29;20125;-63
2023/01/21 03:56:53;;;;;;;6.25;5.65;;;;;1.00;98978.00;;;;4934646;29;20043;-63
2023/01/21 03:59:20;;;;;;;8.95;6.82;;;;;1.00;98979.00;;;;4934212;29;20091;-61
2023/01/21 04:01:46;;;;;;;8.80;6.70;;;;;1.00;98982.00;;;;4920873;29;20052;-62
2023/01/21 04:04:13;;;;;;;7.43;6.35;;;;;1.10;98988.00;;;;4938207;29;20048;-61
2023/01/21 04:06:39;;;;;;;7.55;5.85;;;;;1.00;98977.00;;;;4938673;29;20098;-61
2023/01/21 04:09:06;;;;;;;7.97;6.18;;;;;1.00;98988.00;;;;4938802;29;20106;-62
2023/01/21 04:11:33;;;;;;;11.13;6.85;;;;;1.10;98991.00;;;;4938789;29;20079;-61
2023/01/21 04:14:00;;;;;;;8.93;6.47;;;;;1.00;99000.00;;;;4938520;29;20462;-61
2023/01/21 04:16:26;;;;;;;9.85;6.65;;;;;1.00;99000.00;;;;4938183;29;20511;-61
2023/01/21 04:18:53;;;;;;;8.32;6.35;;;;;1.00;99011.00;;;;4938532;29;20047;-61
2023/01/21 04:21:19;;;;;;;8.18;6.18;;;;;1.00;99012.00;;;;4938453;29;20099;-61
2023/01/21 04:23:46;;;;;;;8.52;6.82;;;;;1.00;99004.00;;;;4938424;29;20047;-61
2023/01/21 04:26:12;;;;;;;9.48;6.50;;;;;0.90;99008.00;;;;4938279;29;20080;-60
2023/01/21 04:28:40;;;;;;;12.25;7.05;;;;;0.90;99019.00;;;;4938743;29;20465;-61
2023/01/21 04:31:07;;;;;;;10.27;7.40;;;;;0.90;99018.00;;;;4938535;29;20556;-61
2023/01/21 04:33:33;;;;;;;10.23;7.18;;;;;0.80;99025.00;;;;4939020;29;20083;-61
2023/01/21 04:36:00;;;;;;;13.18;7.88;;;;;0.80;99030.00;;;;4937481;29;20043;-61
2023/01/21 04:38:27;;;;;;;10.55;7.68;;;;;0.80;99024.00;;;;4938302;29;20094;-61
2023/01/21 04:40:53;;;;;;;13.75;9.13;;;;;0.80;99042.00;;;;4938100;29;20492;-62
2023/01/21 04:43:20;;;;;;;20.33;10.75;;;;;0.80;99030.00;;;;4921153;29;20043;-61
2023/01/21 04:45:48;;;;;;;15.30;9.70;;;;;0.80;99034.00;;;;4937829;29;20054;-61
2023/01/21 04:48:16;;;;;;;16.73;11.07;;;;;0.80;99041.00;;;;4938145;29;20433;-61
2023/01/21 04:50:44;;;;;;;15.27;11.15;;;;;0.80;99043.00;;;;4938232;29;20060;-62
2023/01/21 04:53:11;;;;;;;17.55;11.90;;;;;0.70;99042.00;;;;4938184;29;20043;-61
2023/01/21 04:55:37;;;;;;;17.80;12.75;;;;;0.70;99041.00;;;;4939922;29;20047;-62
2023/01/21 04:58:04;;;;;;;21.17;13.90;;;;;0.70;99050.00;;;;4935445;29;20107;-62
2023/01/21 05:00:30;;;;;;;23.60;14.60;;;;;0.70;99048.00;;;;4949509;29;20530;-62
2023/01/21 05:02:57;;;;;;;24.08;13.80;;;;;0.70;99050.00;;;;4938845;29;20123;-63
2023/01/21 05:05:23;;;;;;;22.90;15.00;;;;;0.70;99063.00;;;;4938126;29;20489;-63
2023/01/21 05:07:53;;;;;;;22.70;15.32;;;;;0.70;99059.00;;;;4938595;29;20043;-62
2023/01/21 05:10:20;;;;;;;21.48;14.48;;;;;0.60;99060.00;;;;4938485;29;20056;-62
2023/01/21 05:12:47;;;;;;;26.75;16.30;;;;;0.60;99058.00;;;;4937166;29;20091;-62
2023/01/21 05:15:14;;;;;;;22.63;15.07;;;;;0.50;99066.00;;;;4920226;29;20147;-62
2023/01/21 05:17:40;;;;;;;24.42;16.88;;;;;0.50;99065.00;;;;4937668;29;20419;-62
2023/01/21 05:20:08;;;;;;;25.08;16.95;;;;;0.50;99068.00;;;;4937501;29;20048;-62
2023/01/21 05:22:34;;;;;;;26.45;16.33;;;;;0.50;99065.00;;;;4937333;29;20070;-62
2023/01/21 05:25:01;;;;;;;24.15;17.10;;;;;0.50;99080.00;;;;4937099;29;20040;-62
2023/01/21 05:27:27;;;;;;;27.73;17.23;;;;;0.50;99085.00;;;;4937310;29;20056;-62
2023/01/21 05:29:55;;;;;;;63.40;35.17;;;;;0.50;99083.00;;;;4937426;29;20051;-62
2023/01/21 05:32:22;;;;;;;25.83;16.35;;;;;0.50;99081.00;;;;4920559;29;20071;-62
2023/01/21 05:34:48;;;;;;;27.90;16.58;;;;;0.50;99091.00;;;;4936799;29;20059;-62
2023/01/21 05:37:15;;;;;;;24.92;16.83;;;;;0.50;99092.00;;;;4937178;29;20047;-62
2023/01/21 05:39:42;;;;;;;24.77;17.40;;;;;0.60;99097.00;;;;4937265;29;20076;-62
2023/01/21 05:42:09;;;;;;;28.60;17.17;;;;;0.50;99114.00;;;;4937400;29;20076;-62
2023/01/21 05:44:35;;;;;;;30.55;17.38;;;;;0.50;99112.00;;;;4936514;29;20095;-62
2023/01/21 05:47:02;;;;;;;28.05;16.88;;;;;0.50;99119.00;;;;4937169;29;20044;-61
2023/01/21 05:49:28;;;;;;;28.02;18.40;;;;;0.50;99109.00;;;;4937386;29;20126;-63
2023/01/21 05:51:55;;;;;;;28.15;17.52;;;;;0.50;99121.00;;;;4936827;29;20139;-62
2023/01/21 05:54:21;;;;;;;26.85;17.08;;;;;0.50;99124.00;;;;4919306;29;20047;-62
2023/01/21 05:56:48;;;;;;;25.63;16.48;;;;;0.50;99123.00;;;;4936622;29;20039;-62
2023/01/21 05:59:14;;;;;;;29.45;17.63;;;;;0.50;99131.00;;;;4937036;29;20044;-62
2023/01/21 06:01:41;;;;;;;27.73;17.27;;;;;0.50;99136.00;;;;4936615;29;20058;-62
2023/01/21 06:04:07;;;;;;;26.20;16.83;;;;;0.50;99135.00;;;;4935960;29;20083;-62
2023/01/21 06:06:34;;;;;;;26.60;16.75;;;;;0.50;99136.00;;;;4936572;29;20448;-62
2023/01/21 06:09:00;;;;;;;24.10;16.65;;;;;0.50;99134.00;;;;4936462;29;20501;-62
2023/01/21 06:11:27;;;;;;;25.85;17.27;;;;;0.50;99138.00;;;;4936351;29;20140;-62
2023/01/21 06:13:53;;;;;;;27.85;17.90;;;;;0.50;99141.00;;;;4936298;29;20103;-61
2023/01/21 06:16:20;;;;;;;25.88;16.50;;;;;0.40;99153.00;;;;4918754;29;20047;-61
2023/01/21 06:18:46;;;;;;;27.85;16.80;;;;;0.40;99153.00;;;;4936270;29;20051;-62
2023/01/21 06:21:13;;;;;;;24.70;16.80;;;;;0.30;99161.00;;;;4936308;29;20072;-62
2023/01/21 06:23:39;;;;;;;26.60;17.63;;;;;0.40;99173.00;;;;4935949;29;20050;-62
2023/01/21 06:26:06;;;;;;;29.73;17.00;;;;;0.40;99165.00;;;;4935705;29;20055;-62
2023/01/21 06:28:32;;;;;;;53.63;28.73;;;;;0.30;99168.00;;;;4936081;29;20394;-63
2023/01/21 06:30:59;;;;;;;26.98;16.15;;;;;0.30;99168.00;;;;4936016;29;20110;-63
2023/01/21 06:33:25;;;;;;;24.27;15.63;;;;;0.20;99179.00;;;;4936246;29;20043;-61
2023/01/21 06:35:52;;;;;;;23.15;14.85;;;;;0.10;99184.00;;;;4935325;29;20416;-62
2023/01/21 06:38:18;;;;;;;28.02;14.88;;;;;0.10;99183.00;;;;4935922;29;20044;-62
2023/01/21 06:40:45;;;;;;;22.15;15.15;;;;;0.00;99181.00;;;;4935780;29;20107;-61
2023/01/21 06:43:11;;;;;;;26.02;16.27;;;;;0.00;99186.00;;;;4935831;29;20453;-61
2023/01/21 06:45:38;;;;;;;25.23;14.18;;;;;-0.10;99184.00;;;;4935792;29;20500;-62
2023/01/21 06:48:05;;;;;;;23.00;15.32;;;;;-0.10;99187.00;;;;4935863;29;20065;-62
2023/01/21 06:50:31;;;;;;;23.67;14.75;;;;;-0.20;99197.00;;;;4935716;29;20386;-62
2023/01/21 06:52:58;;;;;;;21.40;13.32;;;;;-0.20;99198.00;;;;4935580;29;20051;-62
2023/01/21 06:55:24;;;;;;;21.77;14.20;;;;;-0.20;99197.00;;;;4917884;29;20040;-62
2023/01/21 06:57:51;;;;;;;22.08;12.73;;;;;-0.30;99202.00;;;;4935829;29;20554;-62
2023/01/21 07:00:18;;;;;;;21.80;13.27;;;;;-0.40;99209.00;;;;4918596;29;20098;-62
2023/01/21 07:02:45;;;;;;;21.92;14.02;;;;;-0.50;99199.00;;;;4935294;29;20067;-62
2023/01/21 07:05:13;;;;;;;23.67;13.65;;;;;-0.50;99203.00;;;;4934953;29;20490;-62
2023/01/21 07:07:40;;;;;;;27.73;17.10;;;;;-0.50;99197.00;;;;4935556;29;20484;-62
2023/01/21 07:10:07;;;;;;;29.30;16.17;;;;;-0.50;99198.00;;;;4935429;29;20457;-62
2023/01/21 07:12:34;;;;;;;22.48;13.80;;;;;-0.50;99215.00;;;;4918695;29;20047;-61
2023/01/21 07:15:01;;;;;;;21.23;14.60;;;;;-0.50;99218.00;;;;4935049;29;20047;-61
2023/01/21 07:17:27;;;;;;;22.40;13.45;;;;;-0.50;99213.00;;;;4935617;29;20218;-61
2023/01/21 07:19:54;;;;;;;22.88;13.68;;;;;-0.50;99220.00;;;;4935461;29;20047;-61
2023/01/21 07:22:20;;;;;;;23.35;14.23;;;;;-0.60;99220.00;;;;4935503;29;20572;-63
2023/01/21 07:24:46;;;;;;;20.70;13.52;;;;;-0.60;99220.00;;;;4917838;29;20052;-62
2023/01/21 07:27:13;;;;;;;24.63;14.52;;;;;-0.50;99224.00;;;;4935443;29;20496;-62
2023/01/21 07:29:39;;;;;;;25.35;13.27;;;;;-0.60;99233.00;;;;4918466;29;20047;-61
2023/01/21 07:32:06;;;;;;;21.10;12.70;;;;;-0.60;99243.00;;;;4935014;29;20047;-61
2023/01/21 07:34:32;;;;;;;24.85;14.15;;;;;-0.70;99242.00;;;;4934246;29;20493;-62
2023/01/21 07:36:59;;;;;;;22.70;12.63;;;;;-0.70;99241.00;;;;4917924;29;20039;-62
2023/01/21 07:39:26;;;;;;;22.35;12.60;;;;;-0.80;99242.00;;;;4935010;29;20047;-62
2023/01/21 07:41:52;;;;;;;21.08;13.48;;;;;-0.80;99248.00;;;;4935107;29;20048;-61
2023/01/21 07:44:19;;;;;;;26.15;15.27;;;;;-0.80;99250.00;;;;4917626;29;20051;-62
2023/01/21 07:46:45;;;;;;;27.58;15.63;;;;;-0.80;99244.00;;;;4934972;29;20070;-62
2023/01/21 07:49:16;;;;;;;21.17;12.70;;;;;-0.70;99257.00;;;;4934967;29;20577;-62
2023/01/21 07:51:46;;;;;;;22.42;13.90;;;;;-0.80;99261.00;;;;4917831;29;20511;-62
2023/01/21 07:54:13;;;;;;;26.20;15.15;;;;;-0.80;99263.00;;;;4934248;29;20044;-62
2023/01/21 07:56:40;;;;;;;22.95;15.32;;;;;-0.80;99264.00;;;;4934869;29;20548;-62
2023/01/21 07:59:09;;;;;;;21.90;13.57;;;;;-0.70;99271.00;;;;4935155;29;20524;-62
2023/01/21 08:01:35;;;;;;;22.38;14.45;;;;;-0.90;99268.00;;;;4919251;29;20051;-62
2023/01/21 08:04:02;;;;;;;22.08;13.65;;;;;-0.90;99277.00;;;;4935149;29;20043;-61
2023/01/21 08:06:29;;;;;;;22.95;14.30;;;;;-0.90;99261.00;;;;4934686;29;20054;-63
2023/01/21 08:08:55;;;;;;;22.50;14.13;;;;;-0.90;99261.00;;;;4934766;29;20572;-61
2023/01/21 08:11:22;;;;;;;23.58;13.65;;;;;-0.90;99274.00;;;;4934976;29;20448;-62
2023/01/21 08:13:49;;;;;;;27.15;14.15;;;;;-0.80;99278.00;;;;4917986;29;20551;-61
2023/01/21 08:16:15;;;;;;;23.65;13.98;;;;;-0.70;99266.00;;;;4934291;29;20054;-62
2023/01/21 08:18:42;;;;;;;21.98;14.82;;;;;-0.70;99282.00;;;;4917721;29;20043;-62
2023/01/21 08:21:08;;;;;;;24.48;14.65;;;;;-0.60;99274.00;;;;4934814;29;20055;-61
2023/01/21 08:23:35;;;;;;;28.17;16.55;;;;;-0.60;99274.00;;;;4934761;29;20048;-62
2023/01/21 08:26:03;;;;;;;26.45;16.55;;;;;-0.60;99282.00;;;;4934210;29;20103;-62
2023/01/21 08:28:29;;;;;;;26.55;16.88;;;;;-0.40;99293.00;;;;4934940;29;20071;-62
2023/01/21 08:31:23;;;;;;;24.90;14.15;;;;;-0.30;99293.00;;;;4917892;29;20095;-61
2023/01/21 08:33:51;;;;;;;25.02;15.05;;;;;-0.30;99291.00;;;;4934762;29;20060;-62
2023/01/21 08:36:18;;;;;;;22.88;14.60;;;;;-0.30;99289.00;;;;4933987;29;20052;-62
2023/01/21 08:38:44;;;;;;;23.45;14.20;;;;;-0.30;99305.00;;;;4934889;29;20044;-62
2023/01/21 08:41:15;;;;;;;23.00;13.93;;;;;-0.20;99307.00;;;;4939033;29;20048;-62
2023/01/21 08:43:41;;;;;;;25.33;13.82;;;;;-0.20;99304.00;;;;4937784;29;20098;-62
2023/01/21 08:46:08;;;;;;;25.05;13.88;;;;;-0.10;99310.00;;;;4938376;29;20047;-61
2023/01/21 08:48:37;;;;;;;24.20;14.68;;;;;-0.10;99310.00;;;;4941408;29;20052;-62
2023/01/21 08:51:04;;;;;;;26.88;14.80;;;;;0.00;99315.00;;;;4942537;29;20461;-61
2023/01/21 08:53:31;;;;;;;21.77;14.15;;;;;0.10;99317.00;;;;4943532;29;20099;-61
2023/01/21 08:56:02;;;;;;;24.35;14.25;;;;;0.20;99313.00;;;;4925404;29;20047;-62
2023/01/21 08:58:30;;;;;;;25.27;15.35;;;;;0.20;99323.00;;;;4944398;29;20111;-61
2023/01/21 09:00:57;;;;;;;22.65;14.32;;;;;0.20;99319.00;;;;4943206;29;20068;-62
2023/01/21 09:03:24;;;;;;;20.98;14.93;;;;;0.20;99321.00;;;;4942107;29;20487;-62
2023/01/21 09:05:50;;;;;;;26.25;15.38;;;;;0.40;99327.00;;;;4940979;29;20039;-62
2023/01/21 09:08:17;;;;;;;24.95;15.18;;;;;0.50;99326.00;;;;4942116;29;20169;-62
2023/01/21 09:10:59;;;;;;;47.15;27.88;;;;;0.80;99334.00;;;;4940350;29;20048;-62
2023/01/21 09:13:37;;;;;;;26.80;15.85;;;;;1.00;99319.00;;;;4939606;29;20040;-63
2023/01/21 09:16:08;;;;;;;24.98;15.70;;;;;1.10;99328.00;;;;4938553;29;20043;-63
2023/01/21 09:18:36;;;;;;;27.55;16.48;;;;;1.10;99328.00;;;;4938179;29;20048;-63
2023/01/21 09:21:04;;;;;;;23.45;15.38;;;;;1.10;99332.00;;;;4937805;29;20054;-62
2023/01/21 09:23:33;;;;;;;25.65;15.77;;;;;1.30;99341.00;;;;4937847;29;20035;-63
2023/01/21 09:26:03;;;;;;;26.80;16.40;;;;;1.30;99334.00;;;;4936862;29;20047;-62
2023/01/21 09:28:31;;;;;;;26.70;15.60;;;;;1.30;99332.00;;;;4920556;29;20103;-62
2023/01/21 09:31:00;;;;;;;23.58;15.32;;;;;1.30;99338.00;;;;4937530;29;20052;-63
2023/01/21 09:33:28;;;;;;;26.83;16.65;;;;;1.30;99342.00;;;;4937364;29;20055;-63
2023/01/21 09:35:57;;;;;;;25.52;16.02;;;;;1.40;99351.00;;;;4936825;29;20035;-62
2023/01/21 09:38:25;;;;;;;26.58;16.80;;;;;1.40;99348.00;;;;4937290;29;20168;-63
2023/01/21 09:40:52;;;;;;;20.20;13.55;;;;;1.40;99353.00;;;;4937332;29;20047;-62
2023/01/21 09:43:24;;;;;;;19.83;14.00;;;;;1.50;99353.00;;;;4937184;29;20054;-63
2023/01/21 09:45:52;;;;;;;24.05;14.18;;;;;1.40;99358.00;;;;4936764;29;20397;-64
2023/01/21 09:48:27;;;;;;;23.65;15.10;;;;;1.50;99362.00;;;;4937203;29;20056;-63
2023/01/21 09:50:55;;;;;;;21.95;14.20;;;;;1.70;99364.00;;;;4920110;29;20501;-63
2023/01/21 09:53:31;;;;;;;21.50;14.00;;;;;1.70;99364.00;;;;4936900;29;20118;-63
2023/01/21 09:56:01;;;;;;;23.23;13.65;;;;;1.90;99370.00;;;;4936407;29;20044;-63
2023/01/21 09:58:39;;;;;;;23.38;14.18;;;;;2.10;99374.00;;;;4937017;29;20040;-63
2023/01/21 10:01:29;;;;;;;20.50;13.43;;;;;2.00;99373.00;;;;4920639;29;20063;-62
2023/01/21 10:04:39;;;;;;;22.02;13.80;;;;;1.80;99377.00;;;;4936901;29;20044;-62
2023/01/21 10:07:17;;;;;;;20.35;13.63;;;;;1.80;99383.00;;;;4919973;29;20056;-63
2023/01/21 10:09:54;;;;;;;22.38;15.13;;;;;2.00;99389.00;;;;4936507;29;20048;-62
2023/01/21 10:13:01;;;;;;;23.98;14.68;;;;;2.10;99385.00;;;;4936526;29;20103;-62
2023/01/21 10:15:40;;;;;;;19.88;13.63;;;;;2.10;99384.00;;;;4936117;29;20565;-63
2023/01/21 10:18:29;;;;;;;22.40;15.05;;;;;2.10;99394.00;;;;4936570;29;20449;-63
2023/01/21 10:21:14;;;;;;;26.77;15.30;;;;;2.00;99398.00;;;;4936461;29;20039;-63
2023/01/21 10:23:50;;;;;;;23.35;14.40;;;;;2.00;99405.00;;;;4936460;29;20058;-63
2023/01/21 10:26:17;;;;;;;20.60;13.80;;;;;2.00;99390.00;;;;4935835;29;20111;-64
2023/01/21 10:28:49;;;;;;;18.67;12.43;;;;;2.10;99400.00;;;;4936510;29;20517;-64
2023/01/21 10:31:27;;;;;;;20.50;12.27;;;;;2.20;99387.00;;;;4936688;29;20128;-61
2023/01/21 10:33:54;;;;;;;30.23;13.45;;;;;2.30;99403.00;;;;4919561;29;20177;-63
2023/01/21 10:36:49;;;;;;;20.38;12.55;;;;;2.40;99402.00;;;;4935525;29;20054;-61
2023/01/21 10:39:21;;;;;;;;;;;;;2.40;99394.00;;;;4936755;29;20044;-63
2023/01/21 10:42:22;;;;;;;16.50;11.40;;;;;2.40;99398.00;;;;4936247;29;19923;-62
2023/01/21 10:45:26;;;;;;;19.88;12.05;;;;;2.40;99392.00;;;;4935426;29;20544;-62
2023/01/21 10:48:19;;;;;;;20.48;13.15;;;;;2.50;99396.00;;;;4936309;29;20062;-62
2023/01/21 10:51:14;;;;;;;19.48;11.65;;;;;2.50;99393.00;;;;4936068;29;20493;-59
2023/01/21 10:54:00;;;;;;;19.98;12.02;;;;;2.60;99397.00;;;;4909702;29;20064;-62
2023/01/21 10:56:36;;;;;;;19.55;12.27;;;;;2.50;99390.00;;;;4918581;29;20044;-62
2023/01/21 10:59:09;;;;;;;17.65;11.70;;;;;2.50;99382.00;;;;4918538;29;20118;-62
2023/01/21 11:01:39;;;;;;;18.63;12.20;;;;;2.60;99390.00;;;;4935723;29;20126;-62
2023/01/21 11:04:27;;;;;;;20.25;12.75;;;;;2.60;99381.00;;;;4935164;29;20496;-62
2023/01/21 11:06:59;;;;;;;19.48;12.57;;;;;2.60;99384.00;;;;4935555;29;20043;-62
2023/01/21 11:09:30;;;;;;;17.65;12.10;;;;;2.60;99380.00;;;;4935434;29;20043;-62
2023/01/21 11:11:57;;;;;;;17.00;11.73;;;;;2.70;99383.00;;;;4935585;29;20193;-62
2023/01/21 11:14:24;;;;;;;17.75;11.43;;;;;2.70;99384.00;;;;4934854;29;20048;-61
2023/01/21 11:16:52;;;;;;;28.73;13.52;;;;;2.90;99383.00;;;;4935211;29;20580;-62
2023/01/21 11:19:21;;;;;;;17.70;12.13;;;;;3.00;99381.00;;;;4935329;29;20047;-62
2023/01/21 11:22:18;;;;;;;19.55;12.38;;;;;3.20;99389.00;;;;4935207;29;20046;-62
2023/01/21 11:24:50;;;;;;;19.02;12.02;;;;;3.20;99388.00;;;;4934907;29;20444;-62
2023/01/21 11:27:37;;;;;;;19.30;11.25;;;;;3.00;99381.00;;;;4935183;29;20039;-62
2023/01/21 11:30:05;;;;;;;19.00;11.43;;;;;2.60;99373.00;;;;4935406;29;20048;-61
2023/01/21 11:32:52;;;;;;;16.92;11.57;;;;;2.50;99365.00;;;;4935086;29;20082;-61
2023/01/21 11:35:22;;;;;;;19.52;13.10;;;;;2.60;99378.00;;;;4934534;29;20114;-61
2023/01/21 11:37:49;;;;;;;16.48;11.05;;;;;2.70;99380.00;;;;4935056;29;20644;-61
2023/01/21 11:40:24;;;;;;;20.08;12.48;;;;;2.70;99373.00;;;;4918096;29;20052;-60
2023/01/21 11:42:55;;;;;;;20.33;12.27;;;;;2.70;99373.00;;;;4935042;29;20052;-61
2023/01/21 11:45:35;;;;;;;20.38;13.30;;;;;2.60;99366.00;;;;4934588;29;20054;-61
2023/01/21 11:48:18;;;;;;;23.70;14.80;;;;;2.60;99371.00;;;;4918114;29;20040;-61
2023/01/21 11:50:44;;;;;;;24.38;14.15;;;;;2.50;99375.00;;;;4918319;29;20047;-62
2023/01/21 11:53:16;;;;;;;19.60;11.95;;;;;2.60;99373.00;;;;4934828;29;20044;-60
2023/01/21 11:55:53;;;;;;;21.00;11.60;;;;;2.50;99372.00;;;;4934269;29;20048;-62
2023/01/21 11:58:24;;;;;;;20.13;11.63;;;;;2.30;99374.00;;;;4936294;29;20464;-59
2023/01/21 12:00:55;;;;;;;20.75;12.57;;;;;2.20;99374.00;;;;4936655;29;20043;-62
2023/01/21 12:03:26;;;;;;;25.52;13.20;;;;;2.30;99369.00;;;;4918408;29;20051;-63
2023/01/21 12:05:53;;;;;;;18.42;12.10;;;;;2.30;99384.00;;;;4934290;29;20052;-60
2023/01/21 12:08:26;;;;;;;19.35;11.77;;;;;2.20;99376.00;;;;4934798;29;20121;-62
2023/01/21 12:10:55;;;;;;;18.38;11.50;;;;;2.20;99370.00;;;;4934794;29;20450;-62
2023/01/21 12:13:26;;;;;;;18.25;11.80;;;;;2.10;99375.00;;;;4917946;29;20441;-62
2023/01/21 12:16:13;;;;;;;20.10;11.90;;;;;1.90;99379.00;;;;4934239;29;20048;-61
2023/01/21 12:19:15;;;;;;;20.90;11.93;;;;;2.00;99375.00;;;;4934857;29;20464;-62
2023/01/21 12:21:51;;;;;;;17.92;11.40;;;;;1.90;99376.00;;;;4936368;29;20061;-61
2023/01/21 12:24:36;;;;;;;18.77;11.98;;;;;1.90;99372.00;;;;4938043;29;20058;-61
2023/01/21 12:27:23;;;;;;;21.77;12.65;;;;;1.80;99374.00;;;;4938838;29;20043;-62
2023/01/21 12:30:07;;;;;;;16.95;11.27;;;;;1.70;99374.00;;;;4938734;29;20058;-61
2023/01/21 12:32:47;;;;;;;20.75;13.23;;;;;1.80;99379.00;;;;4938374;29;20497;-62
2023/01/21 12:35:28;;;;;;;20.67;11.90;;;;;1.70;99378.00;;;;4937817;29;20095;-61